Forks, WA

11:59 AM PDT on September 16, 2014 (GMT -0700)
Quillayute | Change Station
CLOSE
Current Station
Airport
Location: Quillayute,
Elevation: 194 ft
Nearby Weather Stations

Elev 194 ft 47.94 °N, 124.56 °W | Updated 6 minutes ago

Overcast
Overcast
63 °F
Feels Like 63 °F
N
8
Wind Variable Wind from South

Today
High -- | Low -- °F
--% Chance of Precip.
Yesterday
High -- | Low -- °F
Precip. -- in
6:56 AM 7:27 PM
Last Quarter, 43% visible
Pressure 29.91 in
Visibility 6.0 miles
Clouds Overcast 2200 ft
Dew Point 56 °F
Humidity 78%
Rainfall 0.00 in
Snow Depth 0 in , 0 in , 0 in
UV 2 out of 12
Pollen 1.80 out of 12
Air Quality Not available.
Flu Activity Not available.
METAR KUIL 161853Z AUTO 18007KT 150V220 6SM HZ OVC022 17/13 A2991 RMK AO2 SLP129 T01720133 $

More Conditions Fewer Conditions

Pressure 29.91 in
Visibility 6.0 miles
Clouds Overcast 2200 ft
Dew Point 56 °F
Humidity 78%
Rainfall 0.00 in
Snow Depth 0 in , 0 in , 0 in
UV 2 out of 12
Pollen 1.80 out of 12
Air Quality Not available.
Flu Activity Not available.
METAR KUIL 161853Z AUTO 18007KT 150V220 6SM HZ OVC022 17/13 A2991 RMK AO2 SLP129 T01720133 $

More Conditions Fewer Conditions

10-Day Weather Forecast

Almanac

Astronomy

Sep. 16, 2014 Rise Set
Actual Time 6:56 AM PDT 7:27 PM PDT
Civil Twilight 6:25 AM PDT 7:58 PM PDT
Nautical Twilight 5:48 AM PDT 8:35 PM PDT
Astronomical Twilight 5:09 AM PDT 9:14 PM PDT
Moon No Moon Rise 3:15 PM PDT
Length of Visible Light 13h 33m
Length of Day
12h 31m
Tomorrow will be 3m 26s shorter.
Last Quarter, 43% of the Moon is Illuminated
Today
Last Quarter
Sep 24
New
Oct 1
First Quarter
Oct 8
Full
Oct 15
Last Quarter

Today's Extremes

State Highs State Lows

Community

WunderPhotos

Upload Photos

1,753,856 photos uploaded!

WunderBlogs® & News

Nearby

Snow Depth

Station Depth Elevation
Fish Lake 0 in 3371 ft
Sasse Ridge 0 in 4200 ft
Touchet 0 in 5530 ft
Olallie Meadows 1 in 3700 ft
Swift Creek 0 in 3770 ft

Earthquake Activity

City Distance Mag. Time & Date
No recent earthquake activity has been reported nearby.
Minimum magnitude displayed is 2.5.

Coastal Water Temperatures

Place Temperature
La Push, WA 59.0 °F
Westport, WA 57.0 °F
Port Angeles, WA 51.1 °F
Astoria, OR 64.9 °F

Nearby Weather Stations